createdAt,value
2023-06-30T00:01:40.985Z,10.27
2023-06-30T00:04:09.494Z,9.23
2023-06-30T00:06:39.129Z,10.20
2023-06-30T00:09:09.135Z,10.30
2023-06-30T00:11:40.427Z,9.13
2023-06-30T00:14:08.824Z,10.38
2023-06-30T00:16:37.085Z,10.18
2023-06-30T00:19:06.100Z,9.75
2023-06-30T00:21:34.328Z,8.93
2023-06-30T00:24:05.384Z,10.23
2023-06-30T00:26:33.910Z,9.55
2023-06-30T00:29:02.765Z,9.23
2023-06-30T00:31:31.228Z,10.32
2023-06-30T00:33:59.775Z,10.02
2023-06-30T00:36:28.031Z,9.15
2023-06-30T00:38:56.358Z,10.20
2023-06-30T00:41:26.019Z,10.07
2023-06-30T00:43:54.292Z,10.68
2023-06-30T00:46:22.624Z,9.82
2023-06-30T00:48:51.653Z,10.40
2023-06-30T00:51:20.902Z,9.73
2023-06-30T00:53:50.030Z,9.65
2023-06-30T00:56:18.244Z,9.35
2023-06-30T00:58:48.057Z,9.95
2023-06-30T01:01:24.430Z,9.93
2023-06-30T01:03:58.086Z,10.35
2023-06-30T01:06:34.437Z,9.93
2023-06-30T01:09:05.943Z,9.93
2023-06-30T01:11:36.340Z,9.85
2023-06-30T01:14:07.693Z,10.75
2023-06-30T01:19:11.663Z,9.75
2023-06-30T01:21:40.997Z,10.35
2023-06-30T01:24:11.891Z,9.38
2023-06-30T01:26:42.360Z,10.10
2023-06-30T01:29:12.670Z,10.15
2023-06-30T01:31:44.487Z,10.20
2023-06-30T01:34:12.695Z,10.65
2023-06-30T01:36:40.885Z,10.32
2023-06-30T01:39:09.076Z,10.73
2023-06-30T01:41:37.779Z,9.85
2023-06-30T01:44:06.604Z,10.18
2023-06-30T01:46:36.271Z,10.23
2023-06-30T01:49:05.103Z,10.63
2023-06-30T01:51:33.340Z,9.93
2023-06-30T01:54:01.565Z,10.45
2023-06-30T01:56:30.473Z,10.10
2023-06-30T01:58:58.671Z,10.60
2023-06-30T02:01:26.929Z,11.60
2023-06-30T02:03:56.732Z,10.68
2023-06-30T02:06:24.928Z,10.73
2023-06-30T02:08:53.127Z,10.93
2023-06-30T02:11:23.178Z,11.30
2023-06-30T02:13:51.352Z,10.10
2023-06-30T02:16:19.562Z,9.75
2023-06-30T02:18:47.871Z,10.60
2023-06-30T02:21:17.450Z,9.55
2023-06-30T02:23:46.097Z,10.45
2023-06-30T02:26:14.264Z,9.40
2023-06-30T02:28:42.477Z,9.43
2023-06-30T02:31:10.678Z,10.15
2023-06-30T02:33:40.005Z,10.35
2023-06-30T02:36:08.287Z,10.27
2023-06-30T02:38:37.856Z,9.93
2023-06-30T02:41:06.076Z,10.07
2023-06-30T02:43:34.489Z,10.23
2023-06-30T02:46:02.775Z,9.45
2023-06-30T02:48:31.124Z,10.02
2023-06-30T02:50:59.285Z,9.77
2023-06-30T02:53:27.534Z,10.07
2023-06-30T02:55:57.103Z,10.48
2023-06-30T02:58:25.393Z,10.13
2023-06-30T03:00:54.752Z,10.20
2023-06-30T03:03:23.187Z,11.27
2023-06-30T03:05:51.424Z,10.10
2023-06-30T03:08:19.598Z,10.80
2023-06-30T03:10:50.056Z,10.18
2023-06-30T03:13:19.636Z,10.70
2023-06-30T03:15:48.119Z,10.85
2023-06-30T03:18:16.416Z,10.10
2023-06-30T03:20:44.682Z,10.48
2023-06-30T03:23:15.135Z,10.45
2023-06-30T03:25:43.852Z,11.05
2023-06-30T03:28:12.453Z,10.40
2023-06-30T03:30:42.026Z,9.77
2023-06-30T03:33:10.427Z,10.07
2023-06-30T03:35:38.621Z,10.60
2023-06-30T03:38:06.804Z,10.27
2023-06-30T03:40:35.085Z,10.25
2023-06-30T03:43:04.092Z,9.70
2023-06-30T03:45:32.394Z,9.85
2023-06-30T03:48:01.972Z,10.07
2023-06-30T03:50:30.199Z,10.35
2023-06-30T03:52:58.404Z,10.18
2023-06-30T03:55:26.603Z,10.48
2023-06-30T03:57:54.810Z,11.10
2023-06-30T04:00:23.165Z,11.15
2023-06-30T04:02:51.462Z,11.30
2023-06-30T04:05:21.217Z,10.52
2023-06-30T04:07:49.531Z,10.77
2023-06-30T04:10:17.969Z,11.38
2023-06-30T04:12:46.203Z,11.27
2023-06-30T04:15:14.415Z,10.32
2023-06-30T04:17:42.609Z,10.48
2023-06-30T04:20:11.837Z,10.27
2023-06-30T04:22:41.481Z,10.18
2023-06-30T04:25:10.081Z,9.88
2023-06-30T04:27:38.388Z,9.50
2023-06-30T04:30:08.311Z,8.23
2023-06-30T04:32:37.051Z,9.00
2023-06-30T04:35:05.914Z,9.23
2023-06-30T04:37:34.074Z,8.98
2023-06-30T04:40:05.939Z,8.73
2023-06-30T04:42:34.360Z,9.10
2023-06-30T04:45:02.678Z,9.32
2023-06-30T04:47:30.928Z,9.38
2023-06-30T04:49:59.242Z,8.57
2023-06-30T04:52:27.474Z,8.80
2023-06-30T04:54:56.820Z,9.23
2023-06-30T04:57:26.381Z,8.98
2023-06-30T04:59:56.155Z,8.93
2023-06-30T05:02:24.447Z,9.13
2023-06-30T05:04:53.144Z,9.38
2023-06-30T05:07:21.723Z,10.32
2023-06-30T05:09:49.989Z,9.52
2023-06-30T05:12:18.264Z,8.68
2023-06-30T05:14:47.867Z,9.68
2023-06-30T05:17:16.211Z,10.43
2023-06-30T05:19:45.026Z,9.30
2023-06-30T05:22:13.222Z,10.02
2023-06-30T05:24:41.421Z,8.55
2023-06-30T05:27:09.654Z,9.50
2023-06-30T05:29:37.862Z,8.88
2023-06-30T05:32:09.813Z,8.55
2023-06-30T05:34:38.002Z,8.02
2023-06-30T05:37:07.006Z,7.80
2023-06-30T05:39:35.235Z,7.55
2023-06-30T05:42:03.836Z,7.90
2023-06-30T05:44:32.066Z,7.95
2023-06-30T05:47:00.446Z,7.68
2023-06-30T05:49:30.103Z,8.35
2023-06-30T05:51:58.929Z,7.97
2023-06-30T05:54:27.210Z,7.85
2023-06-30T05:56:55.424Z,8.20
2023-06-30T05:59:23.611Z,8.15
2023-06-30T06:01:53.754Z,8.48
2023-06-30T06:04:22.397Z,8.43
2023-06-30T06:06:52.358Z,8.48
2023-06-30T06:09:20.696Z,8.23
2023-06-30T06:11:48.984Z,9.15
2023-06-30T06:14:18.852Z,8.55
2023-06-30T06:16:47.148Z,8.52
2023-06-30T06:19:15.940Z,7.93
2023-06-30T06:21:44.139Z,8.52
2023-06-30T06:24:13.802Z,8.07
2023-06-30T06:26:43.029Z,7.85
2023-06-30T06:29:14.100Z,8.23
2023-06-30T06:31:44.382Z,7.85
2023-06-30T06:34:12.563Z,7.88
2023-06-30T06:36:40.755Z,8.00
2023-06-30T06:39:09.005Z,8.25
2023-06-30T06:41:38.805Z,8.00
2023-06-30T06:44:07.342Z,8.82
2023-06-30T06:46:35.676Z,9.10
2023-06-30T06:49:04.700Z,7.85
2023-06-30T06:51:34.555Z,8.38
2023-06-30T06:54:02.822Z,8.35
2023-06-30T06:56:31.124Z,8.75
2023-06-30T06:59:00.696Z,8.20
2023-06-30T07:01:28.993Z,7.95
2023-06-30T07:03:57.263Z,7.95
2023-06-30T07:06:25.875Z,7.78
2023-06-30T07:08:54.076Z,7.80
2023-06-30T07:11:22.283Z,7.82
2023-06-30T07:13:50.460Z,8.05
2023-06-30T07:16:21.578Z,7.43
2023-06-30T07:18:49.809Z,8.02
2023-06-30T07:21:18.027Z,8.32
2023-06-30T07:23:49.963Z,7.60
2023-06-30T07:26:18.162Z,7.78
2023-06-30T07:28:48.342Z,8.00
2023-06-30T07:31:16.657Z,8.00
2023-06-30T07:33:46.773Z,8.07
2023-06-30T07:36:14.933Z,7.68
2023-06-30T07:38:43.094Z,8.18
2023-06-30T07:41:11.381Z,7.55
2023-06-30T07:43:39.573Z,7.65
2023-06-30T07:46:07.810Z,7.93
2023-06-30T07:48:39.077Z,8.13
2023-06-30T07:53:39.586Z,7.50
2023-06-30T07:56:07.963Z,7.00
2023-06-30T07:58:36.119Z,6.80
2023-06-30T08:01:04.539Z,7.63
2023-06-30T08:03:33.046Z,7.88
2023-06-30T08:06:01.660Z,8.02
2023-06-30T08:08:32.349Z,7.68
2023-06-30T08:11:00.679Z,7.87
2023-06-30T08:13:29.136Z,8.18
2023-06-30T08:15:57.400Z,8.00
2023-06-30T08:18:34.680Z,8.20
2023-06-30T08:21:03.871Z,8.48
2023-06-30T08:23:33.702Z,7.82
2023-06-30T08:26:01.937Z,7.65
2023-06-30T08:28:30.170Z,7.93
2023-06-30T08:30:58.537Z,8.13
2023-06-30T08:36:02.208Z,7.47
2023-06-30T08:38:30.448Z,7.63
2023-06-30T08:41:01.448Z,7.68
2023-06-30T08:43:31.098Z,7.70
2023-06-30T08:46:01.055Z,7.47
2023-06-30T08:48:31.399Z,7.70
2023-06-30T08:51:00.721Z,7.72
2023-06-30T08:53:30.392Z,7.50
2023-06-30T08:56:01.158Z,6.97
2023-06-30T08:58:29.688Z,7.53
2023-06-30T09:00:58.500Z,7.10
2023-06-30T09:03:27.773Z,7.43
2023-06-30T09:05:57.805Z,7.95
2023-06-30T09:08:47.598Z,7.03
2023-06-30T09:11:18.633Z,7.65
2023-06-30T09:13:49.594Z,8.27
2023-06-30T09:16:19.994Z,7.88
2023-06-30T09:18:49.411Z,7.78
2023-06-30T09:21:17.931Z,7.72
2023-06-30T09:23:46.468Z,7.35
2023-06-30T09:26:16.788Z,7.65
2023-06-30T09:28:45.767Z,7.72
2023-06-30T09:31:14.818Z,7.20
2023-06-30T09:33:43.538Z,7.28
2023-06-30T09:36:18.735Z,7.80
2023-06-30T09:38:47.117Z,7.47
2023-06-30T09:41:23.032Z,7.65
2023-06-30T09:43:58.929Z,7.10
2023-06-30T09:46:28.607Z,7.57
2023-06-30T09:48:57.298Z,8.13
2023-06-30T09:51:25.810Z,7.80
2023-06-30T09:53:54.859Z,7.03
2023-06-30T09:56:25.118Z,7.40
2023-06-30T09:58:58.199Z,7.78
2023-06-30T10:01:26.446Z,7.07
2023-06-30T10:03:56.186Z,7.05
2023-06-30T10:06:26.146Z,7.13
2023-06-30T10:08:54.888Z,8.13
2023-06-30T10:11:25.541Z,7.05
2023-06-30T10:13:56.718Z,7.75
2023-06-30T10:18:55.308Z,8.25
2023-06-30T10:21:23.729Z,8.03
2023-06-30T10:23:53.191Z,8.50
2023-06-30T10:26:22.237Z,8.88
2023-06-30T10:28:52.489Z,8.75
2023-06-30T10:31:21.113Z,9.30
2023-06-30T10:33:49.473Z,12.02
2023-06-30T10:36:19.453Z,12.20
2023-06-30T10:38:48.697Z,12.27
2023-06-30T10:41:20.585Z,7.82
2023-06-30T10:44:10.402Z,8.73
2023-06-30T10:46:58.554Z,7.45
2023-06-30T10:49:31.650Z,6.75
2023-06-30T10:52:02.522Z,7.05
2023-06-30T10:54:34.499Z,7.80
2023-06-30T10:57:07.940Z,7.57
2023-06-30T10:59:44.526Z,7.82
2023-06-30T11:02:25.243Z,8.05
2023-06-30T11:04:54.826Z,8.52
2023-06-30T11:07:26.891Z,8.63
2023-06-30T11:10:05.433Z,8.18
2023-06-30T11:12:54.388Z,9.30
2023-06-30T11:15:39.017Z,9.30
2023-06-30T11:18:11.097Z,9.00
2023-06-30T11:20:39.378Z,8.50
2023-06-30T11:23:09.126Z,8.98
2023-06-30T11:25:37.348Z,9.48
2023-06-30T11:28:06.937Z,9.30
2023-06-30T11:30:39.945Z,9.30
2023-06-30T11:33:09.326Z,7.97
2023-06-30T11:35:38.572Z,8.35
2023-06-30T11:38:10.397Z,8.57
2023-06-30T11:40:47.029Z,8.65
2023-06-30T11:43:15.671Z,9.05
2023-06-30T11:45:46.118Z,9.10
2023-06-30T11:48:14.723Z,9.90
2023-06-30T11:50:43.130Z,8.85
2023-06-30T11:53:11.630Z,9.30
2023-06-30T11:55:45.291Z,9.65
2023-06-30T11:58:13.707Z,9.38
2023-06-30T12:00:45.899Z,9.02
2023-06-30T12:03:18.143Z,9.15
2023-06-30T12:05:57.280Z,9.40
2023-06-30T12:08:27.879Z,9.57
2023-06-30T12:10:56.235Z,10.57
2023-06-30T12:13:29.208Z,10.05
2023-06-30T12:16:04.636Z,10.18
2023-06-30T12:18:37.786Z,10.35
2023-06-30T12:21:10.858Z,10.75
2023-06-30T12:23:42.492Z,11.38
2023-06-30T12:26:10.773Z,10.48
2023-06-30T12:28:39.011Z,11.15
2023-06-30T12:31:08.692Z,11.15
2023-06-30T12:33:36.950Z,11.20
2023-06-30T12:36:07.354Z,12.43
2023-06-30T12:38:35.544Z,12.32
2023-06-30T12:41:03.809Z,13.23
2023-06-30T12:43:34.471Z,13.02
2023-06-30T12:46:03.088Z,12.93
2023-06-30T12:48:33.226Z,11.93
2023-06-30T12:51:01.495Z,12.32
2023-06-30T12:53:29.750Z,11.57
2023-06-30T12:55:58.281Z,10.77
2023-06-30T12:58:28.310Z,11.52
2023-06-30T13:01:01.050Z,10.80
2023-06-30T13:03:30.604Z,10.65
2023-06-30T13:06:00.448Z,11.25
2023-06-30T13:08:28.615Z,10.68
2023-06-30T13:10:57.226Z,10.15
2023-06-30T13:13:25.441Z,9.85
2023-06-30T13:15:54.299Z,10.10
2023-06-30T13:18:22.560Z,10.88
2023-06-30T13:20:50.831Z,10.75
2023-06-30T13:23:35.986Z,11.18
2023-06-30T13:26:05.524Z,10.52
2023-06-30T13:28:33.871Z,10.70
2023-06-30T13:31:02.304Z,10.25
2023-06-30T13:33:30.507Z,10.18
2023-06-30T13:35:58.848Z,9.50
2023-06-30T13:38:28.394Z,9.23
2023-06-30T13:40:56.633Z,8.18
2023-06-30T13:43:24.824Z,7.97
2023-06-30T13:45:53.069Z,8.13
2023-06-30T13:48:21.326Z,7.20
2023-06-30T13:50:50.079Z,7.75
2023-06-30T13:53:18.336Z,7.40
2023-06-30T13:55:48.187Z,8.05
2023-06-30T13:58:16.654Z,8.35
2023-06-30T14:00:47.900Z,8.00
2023-06-30T14:03:17.560Z,8.02
2023-06-30T14:05:48.675Z,7.68
2023-06-30T14:08:17.292Z,8.73
2023-06-30T14:10:45.742Z,9.50
2023-06-30T14:13:15.677Z,8.68
2023-06-30T14:15:44.239Z,8.60
2023-06-30T14:18:12.699Z,8.77
2023-06-30T14:20:40.995Z,8.63
2023-06-30T14:23:09.205Z,8.68
2023-06-30T14:25:37.615Z,8.82
2023-06-30T14:28:06.013Z,8.85
2023-06-30T14:30:35.901Z,8.25
2023-06-30T14:33:04.411Z,8.73
2023-06-30T14:35:32.835Z,8.25
2023-06-30T14:38:01.486Z,8.20
2023-06-30T14:40:30.944Z,9.02
2023-06-30T14:43:00.081Z,9.07
2023-06-30T14:45:30.913Z,9.00
2023-06-30T14:48:00.765Z,8.68
2023-06-30T14:50:29.027Z,8.93
2023-06-30T14:52:57.212Z,8.65
2023-06-30T14:55:25.432Z,8.75
2023-06-30T14:57:54.010Z,9.65
2023-06-30T15:00:22.320Z,9.88
2023-06-30T15:02:50.750Z,9.23
2023-06-30T15:05:20.453Z,10.30
2023-06-30T15:07:48.833Z,9.73
2023-06-30T15:10:17.037Z,9.82
2023-06-30T15:12:45.245Z,8.75
2023-06-30T15:15:13.445Z,8.82
2023-06-30T15:17:41.754Z,8.05
2023-06-30T15:20:10.741Z,7.70
2023-06-30T15:22:40.340Z,7.45
2023-06-30T15:25:09.336Z,8.02
2023-06-30T15:27:37.576Z,8.05
2023-06-30T15:30:07.410Z,7.63
2023-06-30T15:32:35.941Z,7.45
2023-06-30T15:35:05.885Z,7.75
2023-06-30T15:37:34.114Z,7.47
2023-06-30T15:40:03.998Z,7.70
2023-06-30T15:42:32.980Z,8.23
2023-06-30T15:45:01.324Z,8.50
2023-06-30T15:47:29.746Z,8.48
2023-06-30T15:49:58.150Z,7.97
2023-06-30T15:52:26.385Z,8.45
2023-06-30T15:55:10.929Z,7.95
2023-06-30T15:57:39.431Z,8.20
2023-06-30T16:00:13.227Z,8.43
2023-06-30T16:02:41.773Z,8.65
2023-06-30T16:05:10.874Z,8.18
2023-06-30T16:07:39.150Z,7.70
2023-06-30T16:10:08.135Z,8.18
2023-06-30T16:12:37.790Z,8.52
2023-06-30T16:15:09.132Z,8.00
2023-06-30T16:20:06.513Z,7.72
2023-06-30T16:22:34.915Z,7.50
2023-06-30T16:25:03.177Z,8.43
2023-06-30T16:27:31.377Z,7.80
2023-06-30T16:30:22.727Z,7.97
2023-06-30T16:32:51.688Z,7.55
2023-06-30T16:35:20.140Z,7.68
2023-06-30T16:37:49.030Z,7.30
2023-06-30T16:40:18.633Z,8.50
2023-06-30T16:42:47.410Z,7.72
2023-06-30T16:45:15.914Z,8.27
2023-06-30T16:47:47.327Z,8.05
2023-06-30T16:50:16.627Z,7.75
2023-06-30T16:52:45.005Z,7.57
2023-06-30T16:55:13.432Z,7.85
2023-06-30T16:57:41.819Z,7.93
2023-06-30T17:00:11.659Z,7.80
2023-06-30T17:02:40.095Z,7.55
2023-06-30T17:05:10.772Z,8.07
2023-06-30T17:07:39.126Z,7.72
2023-06-30T17:10:08.009Z,8.32
2023-06-30T17:12:36.413Z,7.97
2023-06-30T17:15:04.854Z,7.90
2023-06-30T17:17:33.127Z,8.25
2023-06-30T17:20:02.050Z,8.32
2023-06-30T17:22:31.849Z,8.07
2023-06-30T17:25:04.884Z,7.72
2023-06-30T17:27:34.151Z,6.97
2023-06-30T17:30:02.417Z,6.55
2023-06-30T17:32:30.682Z,6.93
2023-06-30T17:34:58.914Z,5.95
2023-06-30T17:37:27.108Z,6.32
2023-06-30T17:39:56.677Z,5.82
2023-06-30T17:42:24.941Z,6.20
2023-06-30T17:44:53.132Z,5.95
2023-06-30T17:47:21.342Z,6.28
2023-06-30T17:49:49.648Z,5.43
2023-06-30T17:52:17.891Z,6.95
2023-06-30T17:54:46.869Z,6.60
2023-06-30T17:57:16.457Z,6.55
2023-06-30T17:59:44.622Z,6.68
2023-06-30T18:02:12.951Z,5.90
2023-06-30T18:04:41.309Z,7.13
2023-06-30T18:07:12.418Z,6.60
2023-06-30T18:12:10.980Z,6.63
2023-06-30T18:14:42.697Z,6.25
2023-06-30T18:17:11.332Z,6.88
2023-06-30T18:19:42.076Z,6.68
2023-06-30T18:22:10.606Z,6.40
2023-06-30T18:24:38.781Z,7.07
2023-06-30T18:27:07.493Z,6.47
2023-06-30T18:29:35.669Z,6.97
2023-06-30T18:32:06.012Z,7.00
2023-06-30T18:34:34.269Z,6.78
2023-06-30T18:37:02.444Z,6.60
2023-06-30T18:39:30.632Z,7.35
2023-06-30T18:41:59.117Z,7.03
2023-06-30T18:44:28.174Z,6.57
2023-06-30T18:46:56.338Z,7.05
2023-06-30T18:49:25.930Z,7.25
2023-06-30T18:51:55.415Z,7.20
2023-06-30T18:54:23.937Z,7.05
2023-06-30T18:56:52.288Z,6.47
2023-06-30T18:59:20.740Z,6.95
2023-06-30T19:01:49.308Z,6.60
2023-06-30T19:04:18.089Z,7.55
2023-06-30T19:06:48.747Z,7.43
2023-06-30T19:09:17.654Z,7.20
2023-06-30T19:11:45.957Z,7.28
2023-06-30T19:14:14.169Z,7.13
2023-06-30T19:16:42.514Z,7.30
2023-06-30T19:19:10.734Z,6.80
2023-06-30T19:21:38.929Z,6.25
2023-06-30T19:24:09.226Z,6.60
2023-06-30T19:26:37.423Z,6.57
2023-06-30T19:29:05.646Z,6.10
2023-06-30T19:31:33.850Z,6.75
2023-06-30T19:34:02.062Z,6.10
2023-06-30T19:36:32.807Z,5.75
2023-06-30T19:39:01.044Z,6.03
2023-06-30T19:41:30.628Z,5.72
2023-06-30T19:43:58.841Z,5.43
2023-06-30T19:46:27.824Z,5.38
2023-06-30T19:48:56.102Z,5.10
2023-06-30T19:51:24.302Z,5.43
2023-06-30T19:53:52.636Z,5.43
2023-06-30T19:56:20.808Z,5.53
2023-06-30T19:58:50.388Z,6.47
2023-06-30T20:01:20.077Z,5.85
2023-06-30T20:03:48.445Z,5.60
2023-06-30T20:06:16.705Z,6.15
2023-06-30T20:08:44.886Z,6.70
2023-06-30T20:11:13.300Z,6.50
2023-06-30T20:13:41.809Z,6.00
2023-06-30T20:16:11.471Z,5.78
2023-06-30T20:18:39.737Z,4.93
2023-06-30T20:21:07.917Z,5.50
2023-06-30T20:23:36.095Z,5.30
2023-06-30T20:26:04.365Z,5.70
2023-06-30T20:28:32.603Z,5.13
2023-06-30T20:31:00.847Z,5.25
2023-06-30T20:33:30.470Z,6.07
2023-06-30T20:35:58.694Z,5.15
2023-06-30T20:38:26.979Z,4.95
2023-06-30T20:40:55.156Z,4.65
2023-06-30T20:43:23.368Z,4.50
2023-06-30T20:45:51.878Z,4.15
2023-06-30T20:48:20.092Z,4.45
2023-06-30T20:50:49.659Z,4.32
2023-06-30T20:53:17.986Z,3.92
2023-06-30T20:55:46.201Z,3.97
2023-06-30T20:58:14.420Z,4.43
2023-06-30T21:00:42.592Z,4.07
2023-06-30T21:03:11.255Z,3.92
2023-06-30T21:05:39.523Z,3.75
2023-06-30T21:08:09.129Z,3.72
2023-06-30T21:10:37.492Z,3.90
2023-06-30T21:13:05.704Z,3.70
2023-06-30T21:15:33.932Z,3.75
2023-06-30T21:18:02.251Z,3.47
2023-06-30T21:20:30.491Z,3.20
2023-06-30T21:22:58.672Z,3.53
2023-06-30T21:25:28.306Z,3.13
2023-06-30T21:27:56.501Z,3.13
2023-06-30T21:30:24.718Z,2.85
2023-06-30T21:32:52.932Z,2.95
2023-06-30T21:35:21.316Z,3.33
2023-06-30T21:37:49.649Z,2.47
2023-06-30T21:40:17.935Z,2.17
2023-06-30T21:42:47.510Z,2.42
2023-06-30T21:45:15.717Z,2.17
2023-06-30T21:47:45.104Z,2.58
2023-06-30T21:50:13.360Z,2.40
2023-06-30T21:52:41.609Z,2.65
2023-06-30T21:55:10.662Z,2.60
2023-06-30T21:57:38.870Z,1.60
2023-06-30T22:00:10.826Z,1.70
2023-06-30T22:02:39.222Z,1.60
2023-06-30T22:05:07.599Z,1.42
2023-06-30T22:07:35.856Z,1.80
2023-06-30T22:10:05.576Z,1.70
2023-06-30T22:12:33.803Z,1.55
2023-06-30T22:15:02.026Z,1.88
2023-06-30T22:17:31.702Z,1.38
2023-06-30T22:19:59.954Z,1.80
2023-06-30T22:22:28.181Z,1.55
2023-06-30T22:24:56.749Z,1.60
2023-06-30T22:27:24.979Z,1.42
2023-06-30T22:29:53.266Z,1.50
2023-06-30T22:32:21.493Z,1.42
2023-06-30T22:34:51.136Z,1.60
2023-06-30T22:37:19.394Z,1.73
2023-06-30T22:39:48.220Z,1.48
2023-06-30T22:42:16.626Z,1.60
2023-06-30T22:44:44.875Z,1.80
2023-06-30T22:47:13.148Z,1.50
2023-06-30T22:49:41.554Z,1.60
2023-06-30T22:52:11.346Z,1.90
2023-06-30T22:54:39.536Z,1.90
2023-06-30T22:57:07.749Z,2.25
2023-06-30T22:59:36.052Z,1.85
2023-06-30T23:02:04.401Z,1.90
2023-06-30T23:04:32.685Z,1.77
2023-06-30T23:07:00.912Z,1.67
2023-06-30T23:09:30.497Z,1.90
2023-06-30T23:11:58.664Z,1.58
2023-06-30T23:14:26.885Z,1.98
2023-06-30T23:16:55.108Z,2.20
2023-06-30T23:19:27.386Z,2.30
2023-06-30T23:22:06.320Z,2.10
2023-06-30T23:24:36.889Z,2.17
2023-06-30T23:27:05.444Z,2.25
2023-06-30T23:29:35.507Z,2.30
2023-06-30T23:32:07.407Z,2.22
2023-06-30T23:34:37.245Z,2.90
2023-06-30T23:37:06.378Z,2.30
2023-06-30T23:39:36.868Z,3.20
2023-06-30T23:42:05.616Z,3.20
2023-06-30T23:44:33.808Z,3.15
2023-06-30T23:47:04.702Z,3.53
2023-06-30T23:49:33.443Z,3.45
2023-06-30T23:52:02.222Z,3.70
2023-06-30T23:54:30.422Z,2.95
2023-06-30T23:56:59.992Z,3.53
2023-06-30T23:59:28.184Z,3.45
